createdAt,value
2019-03-22T00:02:11.680Z,35.17
2019-03-22T00:04:43.005Z,34.37
2019-03-22T00:07:14.395Z,35.03
2019-03-22T00:09:45.644Z,35.87
2019-03-22T00:12:16.896Z,37.63
2019-03-22T00:14:48.171Z,32.17
2019-03-22T00:17:20.344Z,33.97
2019-03-22T00:19:51.638Z,34.97
2019-03-22T00:22:22.917Z,33.63
2019-03-22T00:24:54.181Z,35.40
2019-03-22T00:27:25.435Z,34.40
2019-03-22T00:29:56.703Z,35.53
2019-03-22T00:32:27.981Z,35.17
2019-03-22T00:34:59.448Z,35.30
2019-03-22T00:37:30.755Z,33.57
2019-03-22T00:40:02.059Z,35.87
2019-03-22T00:42:33.306Z,36.87
2019-03-22T00:45:04.916Z,33.73
2019-03-22T00:47:36.176Z,34.10
2019-03-22T00:50:08.432Z,35.77
2019-03-22T00:52:40.788Z,35.97
2019-03-22T00:55:12.305Z,35.93
2019-03-22T00:57:43.710Z,31.53
2019-03-22T01:00:17.005Z,33.20
2019-03-22T01:02:48.836Z,33.60
2019-03-22T01:05:20.127Z,34.93
2019-03-22T01:07:51.468Z,35.80
2019-03-22T01:10:22.901Z,35.77
2019-03-22T01:12:56.750Z,34.57
2019-03-22T01:15:28.150Z,32.07
2019-03-22T01:17:59.404Z,33.37
2019-03-22T01:20:31.039Z,32.43
2019-03-22T01:23:02.537Z,31.93
2019-03-22T01:25:34.999Z,33.13
2019-03-22T01:28:06.257Z,32.47
2019-03-22T01:30:37.552Z,32.77
2019-03-22T01:33:09.447Z,33.97
2019-03-22T01:35:41.780Z,34.17
2019-03-22T01:38:13.077Z,34.17
2019-03-22T01:40:44.957Z,34.37
2019-03-22T01:43:16.863Z,32.40
2019-03-22T01:45:48.447Z,33.77
2019-03-22T01:48:19.730Z,32.33
2019-03-22T01:50:50.980Z,32.47
2019-03-22T01:53:22.230Z,33.90
2019-03-22T01:55:54.338Z,31.33
2019-03-22T01:58:25.612Z,33.20
2019-03-22T02:00:56.868Z,34.10
2019-03-22T02:03:28.172Z,32.83
2019-03-22T02:05:59.441Z,32.73
2019-03-22T02:08:30.690Z,34.67
2019-03-22T02:11:02.851Z,32.20
2019-03-22T02:13:35.601Z,33.30
2019-03-22T02:16:06.883Z,33.43
2019-03-22T02:18:38.759Z,31.37
2019-03-22T02:21:10.072Z,32.00
2019-03-22T02:23:41.715Z,31.53
2019-03-22T02:26:13.063Z,31.13
2019-03-22T02:28:44.355Z,32.70
2019-03-22T02:31:17.121Z,32.50
2019-03-22T02:33:48.368Z,32.33
2019-03-22T02:36:21.433Z,33.33
2019-03-22T02:38:52.706Z,34.27
2019-03-22T02:41:24.027Z,34.77
2019-03-22T02:43:55.817Z,35.23
2019-03-22T02:46:27.259Z,33.67
2019-03-22T02:48:58.526Z,34.73
2019-03-22T02:51:30.842Z,36.60
2019-03-22T02:54:02.216Z,36.67
2019-03-22T02:56:34.429Z,38.37
2019-03-22T02:59:05.694Z,36.53
2019-03-22T03:01:36.974Z,36.87
2019-03-22T03:04:08.337Z,37.97
2019-03-22T03:06:39.640Z,37.93
2019-03-22T03:09:11.682Z,37.73
2019-03-22T03:11:44.452Z,37.57
2019-03-22T03:14:15.906Z,36.70
2019-03-22T03:16:48.191Z,36.73
2019-03-22T03:19:19.511Z,35.47
2019-03-22T03:21:50.776Z,36.67
2019-03-22T03:24:22.048Z,36.27
2019-03-22T03:26:53.300Z,35.93
2019-03-22T03:29:26.077Z,36.23
2019-03-22T03:31:58.495Z,36.87
2019-03-22T03:34:29.958Z,35.60
2019-03-22T03:37:01.333Z,36.50
2019-03-22T03:39:32.581Z,35.60
2019-03-22T03:42:03.844Z,36.60
2019-03-22T03:44:35.123Z,34.13
2019-03-22T03:47:10.168Z,32.47
2019-03-22T03:49:39.665Z,34.37
2019-03-22T03:52:12.139Z,34.87
2019-03-22T03:54:44.499Z,34.80
2019-03-22T03:57:15.739Z,35.00
2019-03-22T03:59:47.091Z,35.87
2019-03-22T04:02:18.334Z,35.33
2019-03-22T04:04:49.608Z,34.60
2019-03-22T04:07:21.791Z,35.53
2019-03-22T04:09:53.202Z,36.07
2019-03-22T04:12:24.965Z,35.97
2019-03-22T04:14:56.247Z,35.27
2019-03-22T04:17:27.511Z,37.00
2019-03-22T04:19:58.834Z,34.80
2019-03-22T04:22:30.705Z,35.30
2019-03-22T04:25:06.248Z,34.97
2019-03-22T04:27:37.531Z,35.00
2019-03-22T04:30:10.825Z,35.40
2019-03-22T04:32:42.866Z,34.73
2019-03-22T04:35:14.236Z,34.47
2019-03-22T04:37:45.487Z,35.10
2019-03-22T04:40:26.661Z,33.20
2019-03-22T04:42:59.758Z,33.80
2019-03-22T04:45:33.834Z,35.27
2019-03-22T04:48:14.435Z,35.13
2019-03-22T04:50:49.510Z,33.80
2019-03-22T04:53:25.096Z,34.43
2019-03-22T04:56:02.231Z,28.73
2019-03-22T04:58:35.297Z,30.10
2019-03-22T05:01:08.744Z,29.77
2019-03-22T05:03:42.280Z,27.83
2019-03-22T05:06:14.460Z,27.63
2019-03-22T05:08:47.924Z,27.77
2019-03-22T05:11:22.811Z,29.43
2019-03-22T05:14:00.288Z,28.93
2019-03-22T05:16:33.370Z,30.30
2019-03-22T05:19:07.422Z,29.37
2019-03-22T05:21:40.524Z,29.70
2019-03-22T05:24:18.053Z,29.53
2019-03-22T05:26:50.940Z,30.53
2019-03-22T05:29:30.474Z,28.13
2019-03-22T05:32:10.372Z,28.87
2019-03-22T05:34:41.628Z,27.63
2019-03-22T05:37:14.071Z,26.97
2019-03-22T05:39:45.322Z,27.57
2019-03-22T05:42:16.582Z,30.13
2019-03-22T05:44:49.007Z,27.67
2019-03-22T05:47:21.654Z,27.30
2019-03-22T05:49:53.062Z,28.77
2019-03-22T05:52:24.357Z,28.47
2019-03-22T05:54:56.832Z,28.00
2019-03-22T05:57:28.225Z,28.37
2019-03-22T05:59:59.478Z,30.60
2019-03-22T06:02:32.685Z,28.30
2019-03-22T06:05:04.752Z,28.77
2019-03-22T06:07:37.135Z,29.90
2019-03-22T06:10:10.281Z,29.37
2019-03-22T06:12:41.531Z,29.40
2019-03-22T06:15:12.808Z,29.43
2019-03-22T06:17:51.644Z,30.97
2019-03-22T06:20:17.640Z,29.97
2019-03-22T06:22:48.972Z,29.37
2019-03-22T06:25:21.099Z,29.63
2019-03-22T06:27:52.366Z,29.57
2019-03-22T06:30:23.731Z,28.10
2019-03-22T06:32:55.412Z,26.73
2019-03-22T06:35:28.247Z,31.20
2019-03-22T06:37:59.547Z,28.80
2019-03-22T06:40:31.189Z,30.30
2019-03-22T06:43:02.571Z,28.90
2019-03-22T06:45:33.837Z,29.00
2019-03-22T06:48:05.153Z,28.67
2019-03-22T06:50:36.456Z,26.93
2019-03-22T06:53:08.056Z,27.53
2019-03-22T06:55:39.423Z,24.60
2019-03-22T06:58:10.704Z,27.60
2019-03-22T07:00:41.970Z,27.60
2019-03-22T07:03:13.344Z,24.93
2019-03-22T07:05:45.609Z,27.13
2019-03-22T07:08:16.892Z,27.27
2019-03-22T07:10:48.678Z,26.00
2019-03-22T07:13:20.094Z,27.63
2019-03-22T07:15:51.914Z,27.23
2019-03-22T07:18:23.206Z,26.93
2019-03-22T07:20:54.869Z,26.23
2019-03-22T07:23:27.499Z,25.03
2019-03-22T07:25:58.749Z,26.10
2019-03-22T07:28:30.034Z,25.27
2019-03-22T07:31:02.929Z,24.37
2019-03-22T07:33:35.230Z,24.03
2019-03-22T07:36:06.725Z,25.23
2019-03-22T07:38:37.995Z,24.83
2019-03-22T07:41:09.246Z,24.20
2019-03-22T07:43:43.614Z,24.30
2019-03-22T07:46:14.888Z,22.63
2019-03-22T07:48:46.272Z,24.77
2019-03-22T07:51:18.442Z,23.13
2019-03-22T07:53:50.612Z,24.67
2019-03-22T07:56:23.343Z,24.67
2019-03-22T07:58:54.734Z,24.17
2019-03-22T08:01:26.062Z,25.03
2019-03-22T08:03:59.131Z,24.63
2019-03-22T08:06:30.595Z,24.77
2019-03-22T08:09:01.873Z,24.13
2019-03-22T08:11:33.161Z,24.37
2019-03-22T08:14:06.171Z,22.47
2019-03-22T08:16:37.418Z,24.73
2019-03-22T08:19:08.786Z,24.77
2019-03-22T08:21:40.053Z,26.60
2019-03-22T08:24:11.338Z,24.70
2019-03-22T08:26:42.620Z,25.80
2019-03-22T08:29:13.952Z,25.13
2019-03-22T08:31:45.218Z,25.10
2019-03-22T08:34:17.607Z,23.93
2019-03-22T08:36:48.951Z,23.97
2019-03-22T08:39:20.255Z,24.23
2019-03-22T08:41:52.747Z,25.17
2019-03-22T08:44:24.915Z,25.23
2019-03-22T08:46:56.272Z,23.13
2019-03-22T08:49:27.832Z,23.30
2019-03-22T08:52:00.083Z,24.23
2019-03-22T08:54:31.462Z,26.00
2019-03-22T08:57:02.957Z,25.67
2019-03-22T08:59:34.519Z,25.10
2019-03-22T09:02:08.162Z,24.27
2019-03-22T09:04:38.822Z,24.03
2019-03-22T09:07:10.110Z,24.73
2019-03-22T09:09:42.409Z,23.63
2019-03-22T09:12:13.974Z,23.70
2019-03-22T09:14:45.263Z,25.23
2019-03-22T09:17:16.788Z,25.40
2019-03-22T09:19:51.047Z,23.97
2019-03-22T09:22:21.746Z,24.67
2019-03-22T09:24:53.064Z,27.60
2019-03-22T09:27:24.384Z,26.23
2019-03-22T09:29:56.116Z,24.83
2019-03-22T09:32:27.360Z,25.77
2019-03-22T09:35:00.443Z,24.60
2019-03-22T09:37:31.729Z,25.53
2019-03-22T09:40:03.100Z,24.77
2019-03-22T09:42:35.694Z,24.10
2019-03-22T09:45:07.737Z,24.13
2019-03-22T09:47:39.030Z,26.37
2019-03-22T09:50:11.013Z,24.50
2019-03-22T09:52:42.857Z,27.13
2019-03-22T09:55:14.724Z,26.47
2019-03-22T09:57:49.235Z,26.93
2019-03-22T10:00:33.705Z,25.63
2019-03-22T10:03:06.852Z,26.77
2019-03-22T10:05:38.219Z,27.23
2019-03-22T10:08:09.512Z,27.97
2019-03-22T10:10:40.789Z,28.43
2019-03-22T10:13:12.090Z,28.70
2019-03-22T10:15:43.758Z,27.10
2019-03-22T10:18:15.192Z,28.40
2019-03-22T10:20:49.985Z,30.03
2019-03-22T10:23:22.443Z,31.27
2019-03-22T10:25:54.129Z,31.67
2019-03-22T10:28:25.415Z,28.00
2019-03-22T10:30:56.696Z,29.67
2019-03-22T10:33:28.009Z,30.10
2019-03-22T10:35:59.302Z,29.77
2019-03-22T10:38:32.259Z,31.30
2019-03-22T10:41:03.746Z,31.00
2019-03-22T10:43:35.002Z,30.90
2019-03-22T10:46:08.072Z,32.33
2019-03-22T10:48:40.882Z,31.67
2019-03-22T10:51:12.409Z,30.97
2019-03-22T10:53:43.647Z,29.57
2019-03-22T10:56:14.950Z,32.23
2019-03-22T10:58:48.631Z,29.40
2019-03-22T11:01:19.978Z,29.97
2019-03-22T11:03:52.467Z,32.47
2019-03-22T11:06:26.360Z,32.43
2019-03-22T11:08:56.955Z,33.17
2019-03-22T11:11:28.241Z,33.20
2019-03-22T11:13:59.494Z,33.70
2019-03-22T11:16:30.779Z,32.77
2019-03-22T11:19:03.020Z,33.30
2019-03-22T11:21:35.544Z,32.83
2019-03-22T11:24:06.904Z,31.00
2019-03-22T11:26:38.585Z,33.80
2019-03-22T11:29:12.730Z,33.13
2019-03-22T11:31:44.038Z,34.03
2019-03-22T11:34:15.300Z,33.80
2019-03-22T11:36:46.603Z,33.50
2019-03-22T11:39:17.860Z,33.10
2019-03-22T11:41:57.316Z,31.93
2019-03-22T11:44:29.571Z,34.23
2019-03-22T11:47:00.910Z,35.20
2019-03-22T11:49:32.455Z,33.63
2019-03-22T11:52:03.765Z,33.13
2019-03-22T11:54:35.508Z,35.33
2019-03-22T11:57:07.182Z,35.83
2019-03-22T11:59:41.563Z,35.60
2019-03-22T12:02:22.183Z,35.33
2019-03-22T12:04:47.061Z,35.17
2019-03-22T12:07:18.352Z,36.40
2019-03-22T12:09:50.309Z,36.20
2019-03-22T12:12:21.602Z,36.40
2019-03-22T12:14:52.858Z,37.30
2019-03-22T12:17:24.110Z,36.00
2019-03-22T12:19:56.081Z,38.43
2019-03-22T12:22:27.366Z,36.00
2019-03-22T12:24:58.751Z,37.57
2019-03-22T12:27:36.570Z,37.67
2019-03-22T12:30:03.068Z,39.23
2019-03-22T12:32:35.443Z,37.67
2019-03-22T12:35:09.011Z,39.00
2019-03-22T12:37:40.321Z,38.33
2019-03-22T12:40:13.859Z,39.60
2019-03-22T12:42:45.142Z,40.13
2019-03-22T12:45:21.862Z,37.70
2019-03-22T12:47:53.326Z,40.30
2019-03-22T12:50:25.113Z,38.90
2019-03-22T12:52:56.464Z,40.97
2019-03-22T12:55:27.727Z,39.93
2019-03-22T12:58:00.818Z,39.17
2019-03-22T13:00:34.269Z,40.47
2019-03-22T13:03:05.598Z,39.73
2019-03-22T13:05:36.864Z,38.47
2019-03-22T13:08:08.211Z,39.40
2019-03-22T13:10:39.499Z,39.47
2019-03-22T13:13:11.748Z,37.87
2019-03-22T13:15:43.316Z,34.40
2019-03-22T13:18:14.564Z,36.83
2019-03-22T13:20:45.822Z,38.73
2019-03-22T13:23:18.044Z,38.70
2019-03-22T13:25:51.225Z,40.27
2019-03-22T13:28:22.510Z,38.90
2019-03-22T13:30:53.790Z,38.03
2019-03-22T13:33:26.280Z,39.23
2019-03-22T13:35:58.884Z,38.43
2019-03-22T13:38:30.149Z,39.67
2019-03-22T13:41:02.793Z,37.07
2019-03-22T13:43:34.048Z,36.77
2019-03-22T13:46:07.511Z,35.73
2019-03-22T13:48:38.771Z,36.30
2019-03-22T13:51:10.175Z,35.60
2019-03-22T13:53:41.515Z,34.70
2019-03-22T13:56:14.908Z,35.07
2019-03-22T13:58:47.415Z,34.80
2019-03-22T14:01:18.973Z,38.60
2019-03-22T14:03:50.298Z,42.10
2019-03-22T14:06:21.937Z,40.07
2019-03-22T14:08:53.392Z,39.03
2019-03-22T14:11:24.666Z,39.53
2019-03-22T14:13:56.787Z,37.73
2019-03-22T14:16:28.434Z,41.10
2019-03-22T14:19:01.654Z,40.60
2019-03-22T14:21:35.147Z,40.30
2019-03-22T14:24:11.150Z,38.97
2019-03-22T14:26:42.406Z,38.50
2019-03-22T14:29:14.298Z,38.17
2019-03-22T14:31:47.069Z,37.23
2019-03-22T14:34:19.548Z,39.83
2019-03-22T14:36:50.836Z,39.47
2019-03-22T14:39:23.034Z,38.43
2019-03-22T14:41:55.286Z,40.90
2019-03-22T14:44:28.985Z,39.63
2019-03-22T14:47:01.092Z,39.23
2019-03-22T14:49:32.802Z,40.20
2019-03-22T14:52:06.820Z,37.77
2019-03-22T14:54:39.776Z,36.73
2019-03-22T14:57:11.180Z,38.47
2019-03-22T14:59:43.669Z,38.20
2019-03-22T15:02:16.186Z,39.20
2019-03-22T15:04:49.272Z,36.40
2019-03-22T15:07:20.555Z,39.03
2019-03-22T15:09:51.809Z,39.87
2019-03-22T15:12:24.559Z,36.03
2019-03-22T15:15:03.027Z,39.97
2019-03-22T15:17:59.469Z,40.10
2019-03-22T15:20:49.324Z,35.40
2019-03-22T15:23:38.389Z,40.60
2019-03-22T15:26:30.503Z,40.30
2019-03-22T15:29:24.822Z,41.40
2019-03-22T15:32:16.307Z,40.70
2019-03-22T15:35:06.175Z,41.13
2019-03-22T15:37:59.450Z,39.10
2019-03-22T15:40:33.732Z,41.03
2019-03-22T15:43:05.082Z,40.07
2019-03-22T15:45:36.396Z,41.17
2019-03-22T15:48:07.650Z,40.23
2019-03-22T15:50:39.426Z,42.03
2019-03-22T15:53:10.693Z,40.13
2019-03-22T15:55:44.040Z,42.63
2019-03-22T15:58:15.630Z,42.10
2019-03-22T16:00:47.042Z,39.67
2019-03-22T16:03:18.433Z,40.47
2019-03-22T16:05:50.256Z,42.00
2019-03-22T16:08:21.525Z,43.67
2019-03-22T16:10:53.272Z,41.67
2019-03-22T16:13:25.462Z,41.90
2019-03-22T16:15:56.888Z,40.63
2019-03-22T16:18:29.028Z,41.73
2019-03-22T16:21:00.583Z,41.63
2019-03-22T16:23:31.846Z,42.67
2019-03-22T16:26:04.843Z,39.60
2019-03-22T16:28:37.071Z,36.73
2019-03-22T16:31:08.338Z,36.23
2019-03-22T16:33:39.608Z,36.93
2019-03-22T16:36:10.898Z,35.90
2019-03-22T16:38:44.116Z,39.93
2019-03-22T16:41:15.682Z,39.43
2019-03-22T16:43:49.412Z,40.87
2019-03-22T16:46:20.673Z,38.77
2019-03-22T16:48:52.020Z,41.63
2019-03-22T16:51:24.517Z,40.30
2019-03-22T16:53:56.319Z,39.27
2019-03-22T16:56:27.906Z,40.77
2019-03-22T16:59:01.068Z,40.50
2019-03-22T17:01:32.327Z,40.87
2019-03-22T17:04:05.066Z,41.53
2019-03-22T17:06:36.551Z,38.03
2019-03-22T17:09:09.769Z,38.80
2019-03-22T17:11:44.668Z,38.63
2019-03-22T17:14:17.794Z,38.73
2019-03-22T17:16:50.685Z,38.67
2019-03-22T17:19:24.732Z,38.77
2019-03-22T17:21:55.963Z,38.30
2019-03-22T17:24:27.279Z,39.23
2019-03-22T17:26:59.592Z,38.73
2019-03-22T17:29:32.746Z,39.13
2019-03-22T17:32:04.450Z,38.43
2019-03-22T17:34:35.729Z,36.83
2019-03-22T17:37:07.770Z,37.67
2019-03-22T17:39:39.333Z,36.37
2019-03-22T17:42:10.813Z,36.90
2019-03-22T17:44:42.239Z,40.30
2019-03-22T17:47:13.503Z,40.03
2019-03-22T17:49:48.422Z,43.80
2019-03-22T17:52:18.917Z,42.63
2019-03-22T17:54:50.379Z,38.00
2019-03-22T17:57:23.964Z,37.83
2019-03-22T17:59:55.292Z,39.00
2019-03-22T18:02:27.116Z,39.43
2019-03-22T18:04:58.524Z,42.90
2019-03-22T18:07:30.859Z,40.23
2019-03-22T18:10:03.110Z,41.17
2019-03-22T18:12:35.189Z,41.60
2019-03-22T18:15:08.801Z,40.50
2019-03-22T18:17:40.278Z,43.63
2019-03-22T18:20:12.748Z,44.00
2019-03-22T18:22:47.062Z,44.87
2019-03-22T18:25:19.886Z,43.60
2019-03-22T18:27:51.607Z,44.33
2019-03-22T18:30:22.892Z,43.83
2019-03-22T18:32:54.448Z,42.17
2019-03-22T18:35:27.850Z,42.50
2019-03-22T18:37:59.579Z,43.47
2019-03-22T18:40:30.919Z,44.17
2019-03-22T18:43:02.260Z,44.73
2019-03-22T18:45:33.693Z,43.57
2019-03-22T18:48:07.718Z,44.20
2019-03-22T18:50:44.271Z,44.30
2019-03-22T18:53:15.935Z,45.03
2019-03-22T18:55:47.786Z,45.07
2019-03-22T18:58:19.078Z,44.50
2019-03-22T19:00:50.368Z,44.77
2019-03-22T19:03:21.859Z,43.83
2019-03-22T19:05:53.535Z,46.10
2019-03-22T19:08:24.792Z,44.47
2019-03-22T19:10:56.093Z,44.90
2019-03-22T19:13:30.997Z,44.10
2019-03-22T19:16:00.464Z,44.43
2019-03-22T19:18:32.884Z,42.93
2019-03-22T19:21:06.900Z,45.00
2019-03-22T19:23:39.272Z,45.17
2019-03-22T19:26:13.057Z,45.17
2019-03-22T19:28:45.000Z,46.27
2019-03-22T19:31:16.301Z,47.27
2019-03-22T19:33:49.046Z,45.77
2019-03-22T19:36:21.701Z,44.60
2019-03-22T19:38:52.983Z,44.53
2019-03-22T19:41:24.368Z,46.30
2019-03-22T19:43:55.778Z,46.47
2019-03-22T19:46:28.866Z,46.70
2019-03-22T19:49:00.134Z,48.87
2019-03-22T19:51:31.411Z,48.43
2019-03-22T19:54:03.345Z,50.63
2019-03-22T19:56:36.093Z,50.43
2019-03-22T19:59:07.900Z,47.23
2019-03-22T20:01:39.223Z,48.00
2019-03-22T20:04:11.171Z,47.60
2019-03-22T20:06:42.827Z,49.73
2019-03-22T20:09:15.581Z,51.23
2019-03-22T20:11:46.861Z,50.20
2019-03-22T20:14:18.151Z,48.90
2019-03-22T20:16:49.527Z,49.83
2019-03-22T20:19:21.657Z,49.63
2019-03-22T20:21:53.055Z,51.60
2019-03-22T20:24:24.703Z,51.57
2019-03-22T20:26:57.098Z,50.50
2019-03-22T20:29:28.422Z,50.87
2019-03-22T20:31:59.678Z,51.57
2019-03-22T20:34:30.955Z,50.20
2019-03-22T20:37:04.018Z,49.90
2019-03-22T20:39:36.016Z,51.20
2019-03-22T20:42:08.275Z,51.57
2019-03-22T20:44:40.225Z,51.57
2019-03-22T20:47:11.435Z,48.10
2019-03-22T20:49:44.244Z,50.17
2019-03-22T20:52:15.639Z,51.17
2019-03-22T20:54:46.918Z,50.87
2019-03-22T20:57:18.171Z,49.30
2019-03-22T20:59:49.588Z,51.80
2019-03-22T21:02:20.856Z,51.57
2019-03-22T21:04:52.133Z,50.47
2019-03-22T21:07:23.405Z,50.43
2019-03-22T21:09:54.675Z,50.00
2019-03-22T21:12:25.930Z,49.47
2019-03-22T21:14:57.295Z,49.30
2019-03-22T21:17:28.531Z,51.27
2019-03-22T21:19:59.970Z,51.00
2019-03-22T21:22:31.309Z,51.90
2019-03-22T21:25:02.580Z,50.73
2019-03-22T21:27:33.838Z,50.60
2019-03-22T21:30:06.541Z,50.20
2019-03-22T21:32:45.060Z,48.47
2019-03-22T21:35:21.880Z,50.73
2019-03-22T21:37:44.995Z,51.57
2019-03-22T21:40:17.355Z,49.53
2019-03-22T21:42:48.604Z,51.20
2019-03-22T21:45:19.891Z,46.77
2019-03-22T21:47:51.265Z,50.53
2019-03-22T21:50:23.355Z,49.43
2019-03-22T21:52:56.221Z,51.60
2019-03-22T21:55:29.479Z,50.67
2019-03-22T21:58:01.444Z,49.77
2019-03-22T22:00:34.010Z,49.13
2019-03-22T22:03:06.598Z,48.80
2019-03-22T22:05:47.492Z,47.73
2019-03-22T22:08:13.023Z,48.63
2019-03-22T22:10:44.383Z,49.33
2019-03-22T22:13:15.684Z,49.87
2019-03-22T22:15:47.719Z,48.73
2019-03-22T22:18:19.708Z,51.23
2019-03-22T22:20:52.926Z,50.17
2019-03-22T22:23:24.263Z,50.53
2019-03-22T22:25:57.024Z,49.53
2019-03-22T22:28:29.419Z,49.37
2019-03-22T22:31:00.730Z,50.87
2019-03-22T22:33:32.027Z,51.67
2019-03-22T22:36:04.940Z,52.90
2019-03-22T22:38:36.306Z,52.20
2019-03-22T22:41:07.682Z,52.33
2019-03-22T22:43:39.092Z,52.93
2019-03-22T22:46:11.073Z,54.33
2019-03-22T22:48:42.354Z,51.53
2019-03-22T22:51:13.653Z,50.30
2019-03-22T22:53:45.086Z,53.13
2019-03-22T22:56:16.458Z,53.87
2019-03-22T22:58:47.866Z,50.70
2019-03-22T23:01:19.430Z,52.20
2019-03-22T23:03:50.728Z,51.93
2019-03-22T23:06:21.982Z,51.60
2019-03-22T23:08:53.259Z,49.63
2019-03-22T23:11:24.765Z,50.53
2019-03-22T23:13:56.029Z,53.33
2019-03-22T23:16:27.312Z,48.97
2019-03-22T23:18:58.605Z,51.90
2019-03-22T23:21:29.906Z,51.50
2019-03-22T23:24:01.301Z,52.70
2019-03-22T23:26:32.555Z,52.17
2019-03-22T23:29:05.632Z,53.07
2019-03-22T23:31:37.019Z,50.57
2019-03-22T23:34:08.307Z,50.60
2019-03-22T23:36:39.640Z,51.53
2019-03-22T23:39:11.432Z,49.97
2019-03-22T23:41:42.725Z,51.00
2019-03-22T23:44:14.086Z,51.07
2019-03-22T23:46:45.354Z,50.90
2019-03-22T23:49:16.634Z,53.97
2019-03-22T23:51:47.894Z,51.70
2019-03-22T23:54:19.273Z,52.70
2019-03-22T23:56:51.608Z,52.90
2019-03-22T23:59:23.908Z,50.77
